Westbury, Virginia
Current Conditions -  °F | °C
As of 8:54 PM on Thursday 20 Nov 2014 (Local Time) from KOFP Reporting Station
Clear Clear  
Wind Chill: 36°   Ceiling: Unl
Heat Index: 36°   Visibility: 10mi
Dew Point: 27°   Wind: 3mph
Humidity: 70%   Direction: 290°WNW
Pressure: 30.06"   Gusts: NA
Location:  37.5871°N, 77.5706°W
Report Text: KOFP 210154Z AUTO 29003KT 10SM CLR 02/M03 A3006 RMK AO2 SLP180 T00221028
Loading
Personal Weather Stations






























Interactive Weather Map New forecast layout! Learn more

10-Day Weather Forecast

Advertisements
Track Severe Weather on mobile